Time;durP1;ratioP1;P1;durP2;ratioP2;P2;SDS_P1;SDS_P2;PMS_P1;PMS_P2;Temp;Humidity;BMP_temperature;BMP_pressure;BME280_temperature;BME280_humidity;BME280_pressure;Samples;Min_cycle;Max_cycle;Signal;HPM_P1;HPM_P2
2022/01/05 00:00:18;;;;;;;11.20;3.58;;;3.30;85.10;;;;;;4988283;28;20034;-76
2022/01/05 00:02:44;;;;;;;11.27;3.50;;;3.30;85.10;;;;;;4987636;28;20034;-75
2022/01/05 00:05:11;;;;;;;20.45;5.28;;;3.30;85.00;;;;;;4984641;28;20608;-76
2022/01/05 00:07:38;;;;;;;15.27;3.83;;;3.40;84.90;;;;;;4983389;28;20034;-76
2022/01/05 00:10:05;;;;;;;13.18;3.20;;;3.40;84.90;;;;;;4972407;28;20038;-76
2022/01/05 00:12:32;;;;;;;15.43;3.90;;;3.40;84.60;;;;;;4982570;28;20080;-76
2022/01/05 00:14:59;;;;;;;12.60;3.60;;;3.40;84.50;;;;;;4965702;28;20105;-76
2022/01/05 00:17:27;;;;;;;11.05;3.30;;;3.40;84.40;;;;;;4983229;28;20043;-76
2022/01/05 00:19:55;;;;;;;13.38;4.25;;;3.50;84.10;;;;;;4969648;28;20058;-76
2022/01/05 00:22:23;;;;;;;12.43;4.00;;;3.50;84.10;;;;;;4986011;28;20196;-75
2022/01/05 00:24:49;;;;;;;14.25;3.70;;;3.40;83.80;;;;;;4984623;28;20042;-76
2022/01/05 00:27:16;;;;;;;12.93;3.58;;;3.40;84.00;;;;;;4966280;28;20486;-76
2022/01/05 00:29:42;;;;;;;18.02;4.15;;;3.40;84.30;;;;;;4989827;28;20513;-77
2022/01/05 00:32:08;;;;;;;14.02;3.58;;;3.30;84.30;;;;;;4983523;28;20449;-76
2022/01/05 00:34:35;;;;;;;22.58;4.45;;;3.40;84.40;;;;;;4988496;28;20047;-76
2022/01/05 00:37:01;;;;;;;19.70;4.57;;;3.40;83.90;;;;;;4982461;28;20680;-76
2022/01/05 00:39:29;;;;;;;16.35;3.85;;;3.40;83.60;;;;;;4984293;28;20058;-76
2022/01/05 00:41:55;;;;;;;14.45;3.60;;;3.40;83.70;;;;;;4983800;28;20042;-76
2022/01/05 00:44:20;;;;;;;15.57;5.07;;;3.40;83.70;;;;;;4983815;28;20517;-75
2022/01/05 00:46:47;;;;;;;19.98;3.78;;;3.40;83.80;;;;;;4986534;28;20033;-76
2022/01/05 00:49:13;;;;;;;12.57;3.70;;;3.40;83.50;;;;;;4987789;28;20520;-75
2022/01/05 00:51:39;;;;;;;14.48;4.47;;;3.30;83.90;;;;;;4968352;28;20339;-75
2022/01/05 00:54:06;;;;;;;18.50;4.22;;;3.30;83.80;;;;;;4971718;28;20516;-76
2022/01/05 00:56:32;;;;;;;10.13;3.42;;;3.30;83.90;;;;;;4964201;28;20042;-76
2022/01/05 00:58:58;;;;;;;10.25;3.28;;;3.30;83.70;;;;;;4964247;28;20385;-75
2022/01/05 01:01:25;;;;;;;14.85;3.78;;;3.30;83.30;;;;;;4966551;28;20514;-76
2022/01/05 01:03:51;;;;;;;15.05;4.60;;;3.20;83.30;;;;;;4963009;28;20495;-77
2022/01/05 01:06:17;;;;;;;18.88;4.13;;;3.30;83.40;;;;;;4962562;28;20038;-77
2022/01/05 01:08:42;;;;;;;15.75;3.72;;;3.20;83.70;;;;;;4963605;28;20027;-76
2022/01/05 01:11:08;;;;;;;12.70;3.10;;;3.20;83.20;;;;;;4963821;28;20471;-76
2022/01/05 01:13:34;;;;;;;15.00;3.58;;;3.10;83.20;;;;;;4963179;28;20517;-77
2022/01/05 01:16:00;;;;;;;20.73;4.30;;;3.10;83.00;;;;;;4963790;28;20053;-76
2022/01/05 01:18:26;;;;;;;13.55;3.72;;;3.10;82.90;;;;;;4962668;28;20031;-77
2022/01/05 01:20:52;;;;;;;15.27;3.38;;;3.00;82.80;;;;;;4971091;28;20541;-75
2022/01/05 01:23:21;;;;;;;16.75;4.45;;;3.00;82.80;;;;;;4954639;28;20577;-76
2022/01/05 01:25:48;;;;;;;13.18;3.28;;;3.00;82.80;;;;;;4964611;28;20538;-76
2022/01/05 01:28:14;;;;;;;16.23;3.70;;;3.00;82.80;;;;;;4964285;28;20077;-76
2022/01/05 01:30:40;;;;;;;15.98;3.40;;;2.90;82.70;;;;;;4964357;28;20113;-76
2022/01/05 01:33:06;;;;;;;18.10;5.47;;;2.90;82.60;;;;;;4962090;28;20730;-76
2022/01/05 01:35:32;;;;;;;14.85;3.22;;;2.90;82.30;;;;;;4963526;28;20074;-77
2022/01/05 01:37:58;;;;;;;12.90;3.28;;;2.80;82.40;;;;;;4963637;28;20045;-76
2022/01/05 01:40:24;;;;;;;12.18;3.42;;;2.80;82.70;;;;;;4965522;28;20517;-76
2022/01/05 01:42:49;;;;;;;13.98;3.38;;;2.70;82.90;;;;;;4961097;28;20656;-76
2022/01/05 01:45:15;;;;;;;15.23;3.50;;;2.70;82.70;;;;;;4964747;28;20528;-76
2022/01/05 01:47:42;;;;;;;11.98;3.28;;;2.60;82.80;;;;;;4963455;28;20066;-77
2022/01/05 01:50:09;;;;;;;15.15;3.28;;;2.60;82.70;;;;;;4965932;28;20106;-76
2022/01/05 01:52:34;;;;;;;15.43;4.28;;;2.60;82.70;;;;;;4981969;28;20084;-77
2022/01/05 01:55:01;;;;;;;21.95;3.70;;;2.60;82.40;;;;;;4977753;28;20544;-77
2022/01/05 01:57:28;;;;;;;11.82;3.70;;;2.60;82.30;;;;;;4982571;28;20537;-76
2022/01/05 01:59:57;;;;;;;13.82;3.33;;;2.60;82.50;;;;;;4988033;28;20050;-76
2022/01/05 02:02:24;;;;;;;13.70;3.50;;;2.60;82.40;;;;;;4982786;28;20117;-77
2022/01/05 02:04:50;;;;;;;18.90;3.10;;;2.60;82.20;;;;;;4982228;28;20045;-75
2022/01/05 02:07:16;;;;;;;14.90;3.80;;;2.60;81.70;;;;;;4981677;28;20496;-76
2022/01/05 02:09:42;;;;;;;13.13;4.40;;;2.60;82.10;;;;;;4990667;28;20034;-77
2022/01/05 02:12:08;;;;;;;12.57;3.30;;;2.60;82.30;;;;;;4982338;28;20046;-76
2022/01/05 02:14:34;;;;;;;13.20;3.85;;;2.50;82.40;;;;;;4986912;28;20053;-76
2022/01/05 02:17:08;;;;;;;11.70;4.28;;;2.50;82.40;;;;;;4961706;28;20042;-76
2022/01/05 02:19:35;;;;;;;12.32;4.88;;;2.50;82.30;;;;;;4981754;28;20125;-77
2022/01/05 02:22:01;;;;;;;14.70;4.13;;;2.60;82.30;;;;;;4980029;28;20461;-74
2022/01/05 02:24:27;;;;;;;12.70;4.03;;;2.50;82.20;;;;;;4986115;28;20038;-77
2022/01/05 02:26:52;;;;;;;14.32;3.97;;;2.60;82.50;;;;;;4978641;28;20054;-76
2022/01/05 02:29:18;;;;;;;17.50;4.30;;;2.50;82.50;;;;;;4985018;28;20912;-76
2022/01/05 02:31:44;;;;;;;14.85;4.95;;;2.60;82.80;;;;;;4977336;28;20486;-76
2022/01/05 02:34:10;;;;;;;15.30;4.70;;;2.60;82.80;;;;;;4963169;28;20057;-76
2022/01/05 02:36:36;;;;;;;14.73;4.75;;;2.50;82.90;;;;;;4985191;28;20470;-76
2022/01/05 02:39:02;;;;;;;18.33;4.32;;;2.50;83.10;;;;;;4975367;28;20565;-76
2022/01/05 02:41:28;;;;;;;14.60;4.13;;;2.50;83.50;;;;;;4982636;28;20108;-76
2022/01/05 02:43:54;;;;;;;15.98;4.68;;;2.50;83.50;;;;;;4978219;28;20042;-77
2022/01/05 02:46:22;;;;;;;16.33;5.30;;;2.50;83.30;;;;;;4983851;28;20038;-76
2022/01/05 02:48:50;;;;;;;15.13;4.70;;;2.50;83.40;;;;;;4979612;28;20064;-76
2022/01/05 02:51:16;;;;;;;17.50;5.50;;;2.40;83.70;;;;;;4982932;28;20069;-76
2022/01/05 02:53:42;;;;;;;16.25;5.50;;;2.40;84.00;;;;;;4987360;28;20046;-77
2022/01/05 02:56:08;;;;;;;18.25;6.95;;;2.40;84.30;;;;;;4969964;28;20036;-76
2022/01/05 02:58:34;;;;;;;17.27;6.72;;;2.40;84.50;;;;;;4989029;28;20872;-77
2022/01/05 03:01:00;;;;;;;19.02;6.70;;;2.30;84.70;;;;;;4980288;28;20121;-77
2022/01/05 03:03:25;;;;;;;19.52;5.85;;;2.40;85.10;;;;;;4963211;28;20065;-76
2022/01/05 03:05:51;;;;;;;20.55;5.95;;;2.40;85.40;;;;;;4980922;28;20100;-77
2022/01/05 03:08:17;;;;;;;20.75;5.68;;;2.40;85.50;;;;;;4967293;28;20494;-76
2022/01/05 03:10:43;;;;;;;17.40;5.35;;;2.40;85.60;;;;;;4981746;28;20583;-76
2022/01/05 03:13:08;;;;;;;16.17;5.32;;;2.40;85.70;;;;;;4981602;28;20046;-76
2022/01/05 03:15:37;;;;;;;18.60;6.22;;;2.60;85.60;;;;;;4989793;28;20092;-76
2022/01/05 03:18:03;;;;;;;17.30;5.40;;;2.60;85.50;;;;;;4982392;28;20045;-76
2022/01/05 03:20:30;;;;;;;17.77;5.57;;;2.60;85.60;;;;;;4981710;28;20113;-76
2022/01/05 03:22:57;;;;;;;16.42;4.70;;;2.70;85.60;;;;;;4983044;28;20034;-76
2022/01/05 03:25:23;;;;;;;15.35;5.55;;;2.60;85.60;;;;;;4980935;28;20038;-76
2022/01/05 03:27:51;;;;;;;16.15;5.10;;;2.60;85.70;;;;;;4985557;28;20046;-77
2022/01/05 03:30:20;;;;;;;18.33;4.50;;;2.60;85.70;;;;;;4980239;28;20065;-78
2022/01/05 03:35:24;;;;;;;12.32;4.05;;;2.70;85.70;;;;;;4978414;28;20430;-76
2022/01/05 03:37:49;;;;;;;18.05;4.97;;;2.70;85.90;;;;;;4980587;28;20081;-76
2022/01/05 03:40:15;;;;;;;16.48;5.07;;;2.70;86.30;;;;;;4968248;28;20073;-76
2022/01/05 03:42:41;;;;;;;16.20;5.00;;;2.70;86.10;;;;;;4988579;28;20030;-77
2022/01/05 03:45:07;;;;;;;15.05;4.70;;;2.80;86.10;;;;;;4979963;28;20038;-76
2022/01/05 03:47:32;;;;;;;13.50;4.93;;;2.90;86.00;;;;;;4979497;28;20160;-76
2022/01/05 03:49:58;;;;;;;18.92;6.55;;;3.00;85.70;;;;;;4981748;28;20507;-76
2022/01/05 03:52:24;;;;;;;15.27;4.70;;;3.00;85.80;;;;;;4980943;28;20517;-76
2022/01/05 03:54:49;;;;;;;19.75;4.90;;;3.00;86.00;;;;;;4984774;28;20449;-76
2022/01/05 03:57:15;;;;;;;16.17;4.78;;;3.00;86.10;;;;;;4980125;28;20070;-76
2022/01/05 03:59:41;;;;;;;18.23;5.43;;;3.00;86.40;;;;;;4985833;28;20078;-76
2022/01/05 04:02:07;;;;;;;14.82;5.30;;;3.10;86.20;;;;;;4980241;28;20096;-76
2022/01/05 04:04:33;;;;;;;17.15;4.93;;;3.10;86.20;;;;;;4979688;28;20116;-76
2022/01/05 04:06:58;;;;;;;17.98;4.57;;;3.10;86.30;;;;;;4982619;28;20871;-75
2022/01/05 04:09:24;;;;;;;17.50;4.75;;;3.10;86.00;;;;;;4985576;28;20056;-74
2022/01/05 04:11:49;;;;;;;16.92;4.72;;;3.10;86.20;;;;;;4985873;28;20557;-76
2022/01/05 04:14:15;;;;;;;19.23;5.13;;;3.20;86.30;;;;;;4980180;28;20039;-76
2022/01/05 04:16:41;;;;;;;16.52;4.63;;;3.20;86.30;;;;;;4984941;28;20154;-77
2022/01/05 04:19:06;;;;;;;19.65;4.32;;;3.20;86.30;;;;;;4984436;28;20080;-76
2022/01/05 04:21:32;;;;;;;13.70;4.65;;;3.20;86.40;;;;;;4984655;28;20042;-77
2022/01/05 04:23:57;;;;;;;17.58;4.63;;;3.20;86.60;;;;;;4982719;28;20089;-74
2022/01/05 04:26:23;;;;;;;15.05;4.32;;;3.20;86.60;;;;;;4979928;28;20397;-78
2022/01/05 04:28:49;;;;;;;18.15;4.57;;;3.30;86.40;;;;;;4964169;28;20448;-77
2022/01/05 04:31:15;;;;;;;18.02;4.55;;;3.30;86.50;;;;;;4977585;28;20050;-76
2022/01/05 04:33:41;;;;;;;23.45;4.95;;;3.30;86.70;;;;;;4971599;28;20521;-76
2022/01/05 04:36:07;;;;;;;15.88;4.68;;;3.40;86.40;;;;;;4982065;28;20038;-77
2022/01/05 04:38:34;;;;;;;18.63;4.43;;;3.40;86.30;;;;;;4981115;28;20862;-76
2022/01/05 04:41:00;;;;;;;19.13;5.38;;;3.40;86.10;;;;;;4988777;28;20042;-77
2022/01/05 04:43:25;;;;;;;24.98;5.10;;;3.40;86.10;;;;;;4982728;28;20366;-76
2022/01/05 04:45:51;;;;;;;13.80;4.80;;;3.50;86.30;;;;;;4985378;28;20533;-78
2022/01/05 04:48:17;;;;;;;19.23;4.72;;;3.50;86.00;;;;;;4983479;28;20486;-76
2022/01/05 04:50:43;;;;;;;14.25;4.13;;;3.50;86.00;;;;;;4983102;28;20046;-76
2022/01/05 04:53:11;;;;;;;14.18;3.75;;;3.50;86.00;;;;;;4982698;28;20360;-76
2022/01/05 04:55:38;;;;;;;18.33;4.75;;;3.50;86.10;;;;;;4985788;28;20044;-77
2022/01/05 04:58:04;;;;;;;15.48;4.50;;;3.50;86.10;;;;;;4987394;28;20505;-75
2022/01/05 05:00:29;;;;;;;19.17;4.80;;;3.50;86.10;;;;;;4984686;28;20082;-76
2022/01/05 05:02:55;;;;;;;13.88;4.00;;;3.50;86.00;;;;;;4968033;28;20042;-75
2022/01/05 05:05:21;;;;;;;13.80;4.13;;;3.50;86.20;;;;;;4987054;28;20057;-76
2022/01/05 05:07:46;;;;;;;21.00;4.72;;;3.50;86.00;;;;;;4982797;28;20516;-76
2022/01/05 05:10:12;;;;;;;16.30;5.45;;;3.50;85.70;;;;;;4983220;28;20290;-76
2022/01/05 05:12:38;;;;;;;15.77;4.78;;;3.50;85.60;;;;;;4981271;28;20082;-75
2022/01/05 05:15:04;;;;;;;15.00;4.32;;;3.50;85.70;;;;;;4982563;28;20038;-75
2022/01/05 05:17:30;;;;;;;20.33;4.88;;;3.50;85.80;;;;;;4983219;28;20042;-75
2022/01/05 05:19:55;;;;;;;22.77;4.95;;;3.60;85.70;;;;;;4983432;28;20046;-75
2022/01/05 05:22:21;;;;;;;16.10;5.20;;;3.60;85.80;;;;;;4981907;28;20105;-76
2022/01/05 05:24:47;;;;;;;13.85;4.80;;;3.60;85.50;;;;;;4982421;28;20482;-76
2022/01/05 05:27:12;;;;;;;13.30;4.38;;;3.60;85.50;;;;;;4991506;28;20038;-76
2022/01/05 05:29:38;;;;;;;14.10;4.32;;;3.60;85.30;;;;;;4989103;28;20034;-75
2022/01/05 05:32:05;;;;;;;12.25;4.68;;;3.60;85.30;;;;;;4985385;28;20038;-76
2022/01/05 05:34:31;;;;;;;11.70;4.47;;;3.60;85.50;;;;;;4963998;28;20069;-76
2022/01/05 05:36:56;;;;;;;15.73;5.20;;;3.60;85.50;;;;;;4981818;28;20538;-76
2022/01/05 05:39:22;;;;;;;15.85;4.53;;;3.60;85.60;;;;;;4982910;28;20046;-76
2022/01/05 05:41:48;;;;;;;14.80;5.30;;;3.60;85.10;;;;;;4982319;28;20125;-76
2022/01/05 05:44:14;;;;;;;14.05;5.57;;;3.60;85.00;;;;;;4970175;28;20183;-77
2022/01/05 05:46:39;;;;;;;20.08;5.68;;;3.60;84.80;;;;;;4983921;28;20469;-75
2022/01/05 05:49:05;;;;;;;16.73;5.60;;;3.60;84.70;;;;;;4982358;28;20137;-75
2022/01/05 05:51:30;;;;;;;17.67;5.45;;;3.60;84.80;;;;;;4984286;28;20053;-76
2022/01/05 05:53:56;;;;;;;16.65;5.88;;;3.60;84.90;;;;;;4982136;28;20932;-75
2022/01/05 05:56:22;;;;;;;17.58;5.90;;;3.50;85.20;;;;;;4985695;28;20093;-78
2022/01/05 05:58:47;;;;;;;15.40;4.45;;;3.60;85.20;;;;;;4989109;28;20037;-76
2022/01/05 06:01:13;;;;;;;19.85;5.88;;;3.60;84.60;;;;;;4966962;28;20038;-75
2022/01/05 06:03:39;;;;;;;17.92;5.75;;;3.60;84.20;;;;;;4981314;28;20624;-77
2022/01/05 06:06:04;;;;;;;17.77;6.57;;;3.60;84.50;;;;;;4981125;28;20053;-76
2022/01/05 06:08:30;;;;;;;21.48;6.60;;;3.60;84.70;;;;;;4984976;28;20061;-75
2022/01/05 06:10:56;;;;;;;18.60;7.82;;;3.60;84.60;;;;;;4968524;28;20083;-76
2022/01/05 06:13:21;;;;;;;20.27;8.13;;;3.60;84.60;;;;;;4981807;28;20046;-78
2022/01/05 06:15:47;;;;;;;22.25;7.05;;;3.60;84.50;;;;;;4986544;28;20768;-76
2022/01/05 06:18:13;;;;;;;18.10;7.65;;;3.60;84.60;;;;;;4982828;28;20042;-77
2022/01/05 06:20:38;;;;;;;25.02;10.95;;;3.70;84.60;;;;;;4984609;28;20041;-76
2022/01/05 06:23:04;;;;;;;18.65;8.55;;;3.70;84.70;;;;;;4981000;28;20074;-76
2022/01/05 06:25:30;;;;;;;18.13;7.13;;;3.70;84.70;;;;;;4983194;28;20038;-76
2022/01/05 06:27:55;;;;;;;22.10;6.50;;;3.70;84.60;;;;;;4980567;28;20145;-76
2022/01/05 06:30:21;;;;;;;15.57;5.03;;;3.70;84.80;;;;;;4982128;28;20050;-76
2022/01/05 06:32:48;;;;;;;15.70;4.80;;;3.70;84.80;;;;;;4986412;28;20104;-76
2022/01/05 06:35:15;;;;;;;18.45;5.35;;;3.80;85.00;;;;;;4963441;28;20042;-75
2022/01/05 06:37:41;;;;;;;25.33;5.20;;;3.70;85.30;;;;;;4986397;28;20486;-76
2022/01/05 06:40:08;;;;;;;18.65;4.55;;;3.70;85.40;;;;;;4991047;28;20041;-76
2022/01/05 06:42:33;;;;;;;19.23;5.15;;;3.80;85.30;;;;;;4980922;28;20102;-76
2022/01/05 06:44:59;;;;;;;15.52;4.82;;;3.80;85.40;;;;;;4980685;28;20609;-76
2022/01/05 06:47:25;;;;;;;20.67;5.95;;;3.80;85.10;;;;;;4969934;28;20050;-76
2022/01/05 06:49:51;;;;;;;21.65;5.80;;;3.80;85.10;;;;;;4981027;28;20039;-76
2022/01/05 06:52:16;;;;;;;17.20;5.55;;;3.80;85.20;;;;;;4965375;28;20054;-75
2022/01/05 06:54:42;;;;;;;18.58;6.40;;;3.70;85.60;;;;;;4986170;28;20042;-77
2022/01/05 06:57:09;;;;;;;18.75;5.53;;;3.70;85.80;;;;;;4985925;28;20125;-77
2022/01/05 06:59:35;;;;;;;20.48;5.93;;;3.70;86.00;;;;;;4974719;28;20437;-76
2022/01/05 07:02:03;;;;;;;22.85;4.78;;;3.70;86.00;;;;;;4979849;28;20105;-76
2022/01/05 07:04:29;;;;;;;13.40;4.85;;;3.80;85.90;;;;;;4981497;28;20048;-76
2022/01/05 07:06:55;;;;;;;16.83;5.40;;;3.80;86.00;;;;;;4988183;28;20042;-77
2022/01/05 07:09:20;;;;;;;17.40;4.90;;;3.80;86.10;;;;;;4986437;28;20034;-76
2022/01/05 07:11:46;;;;;;;15.98;4.72;;;3.80;86.10;;;;;;4981626;28;20089;-76
2022/01/05 07:14:11;;;;;;;15.52;4.93;;;3.70;86.50;;;;;;4991087;28;20046;-76
2022/01/05 07:16:37;;;;;;;17.35;4.80;;;3.70;86.70;;;;;;4981243;28;20042;-76
2022/01/05 07:19:03;;;;;;;25.35;5.60;;;3.80;86.90;;;;;;4979930;28;20049;-76
2022/01/05 07:21:33;;;;;;;16.15;4.07;;;3.80;86.80;;;;;;4981046;28;20500;-76
2022/01/05 07:24:00;;;;;;;20.83;3.95;;;3.90;86.60;;;;;;4980237;28;20053;-76
2022/01/05 07:26:27;;;;;;;15.38;4.90;;;3.90;86.30;;;;;;4986740;28;20038;-76
2022/01/05 07:28:53;;;;;;;15.02;4.15;;;4.00;86.00;;;;;;4982307;28;20129;-76
2022/01/05 07:31:19;;;;;;;18.10;4.75;;;4.10;85.90;;;;;;4983096;28;20041;-76
2022/01/05 07:33:45;;;;;;;19.27;5.00;;;4.10;85.80;;;;;;4980491;28;20078;-75
2022/01/05 07:36:11;;;;;;;14.82;4.93;;;4.10;85.70;;;;;;4982315;28;20034;-76
2022/01/05 07:38:37;;;;;;;16.92;5.35;;;4.10;85.80;;;;;;4987087;28;20117;-76
2022/01/05 07:41:03;;;;;;;23.50;5.30;;;4.10;86.10;;;;;;4986423;28;20044;-76
2022/01/05 07:43:28;;;;;;;15.70;5.05;;;4.10;85.90;;;;;;4981967;28;20041;-77
2022/01/05 07:45:54;;;;;;;17.70;5.70;;;4.10;86.10;;;;;;4980273;28;20088;-76
2022/01/05 07:48:20;;;;;;;20.95;5.63;;;4.10;86.40;;;;;;4979451;28;20088;-77
2022/01/05 07:50:46;;;;;;;21.60;5.65;;;4.10;86.40;;;;;;4981531;28;20342;-76
2022/01/05 07:53:11;;;;;;;17.00;5.03;;;4.10;86.60;;;;;;4985530;28;20045;-76
2022/01/05 07:55:37;;;;;;;19.77;4.88;;;4.10;86.70;;;;;;4984176;28;20417;-76
2022/01/05 07:58:03;;;;;;;17.10;4.47;;;4.10;86.70;;;;;;4984451;28;20042;-77
2022/01/05 08:00:29;;;;;;;19.02;5.30;;;4.20;86.80;;;;;;4983041;28;20030;-78
2022/01/05 08:02:55;;;;;;;21.17;4.25;;;4.20;86.60;;;;;;4978678;28;20508;-76
2022/01/05 08:05:20;;;;;;;20.33;4.45;;;4.30;86.40;;;;;;4971679;28;20048;-77
2022/01/05 08:07:46;;;;;;;15.18;4.50;;;4.40;86.10;;;;;;4981942;28;20045;-76
2022/01/05 08:10:12;;;;;;;16.27;4.38;;;4.40;85.70;;;;;;4962393;28;20042;-76
2022/01/05 08:12:40;;;;;;;17.70;4.57;;;4.50;85.40;;;;;;4979107;28;20034;-77
2022/01/05 08:15:06;;;;;;;19.73;4.03;;;4.60;85.10;;;;;;4981039;28;20500;-76
2022/01/05 08:17:32;;;;;;;20.35;4.53;;;4.60;85.10;;;;;;4982923;28;20026;-76
2022/01/05 08:19:57;;;;;;;18.50;4.90;;;4.60;84.80;;;;;;4982278;28;20116;-76
2022/01/05 08:22:23;;;;;;;17.52;4.50;;;4.70;84.70;;;;;;4967164;28;20481;-76
2022/01/05 08:24:49;;;;;;;19.27;4.70;;;4.70;84.70;;;;;;4982661;28;20494;-76
2022/01/05 08:27:14;;;;;;;20.08;4.97;;;4.70;84.60;;;;;;4981902;28;20035;-75
2022/01/05 08:29:40;;;;;;;19.75;4.97;;;4.70;84.60;;;;;;4982888;28;20050;-73
2022/01/05 08:32:06;;;;;;;16.20;4.15;;;4.60;84.70;;;;;;4981412;28;20038;-73
2022/01/05 08:34:32;;;;;;;20.90;4.80;;;4.70;84.70;;;;;;4970720;28;20470;-73
2022/01/05 08:36:59;;;;;;;19.40;4.32;;;4.60;84.80;;;;;;4964611;28;20042;-75
2022/01/05 08:39:25;;;;;;;17.90;4.22;;;4.60;84.80;;;;;;4982645;28;20144;-73
2022/01/05 08:41:52;;;;;;;15.25;4.07;;;4.70;84.80;;;;;;4979338;28;20051;-74
2022/01/05 08:44:17;;;;;;;24.23;4.88;;;4.80;84.40;;;;;;4982027;28;20042;-74
2022/01/05 08:46:43;;;;;;;16.40;3.70;;;4.90;84.20;;;;;;4983004;28;20367;-73
2022/01/05 08:49:10;;;;;;;24.23;5.20;;;5.00;84.00;;;;;;4983065;28;20029;-74
2022/01/05 08:51:37;;;;;;;20.95;4.90;;;5.00;84.00;;;;;;4980297;28;20722;-74
2022/01/05 08:54:03;;;;;;;23.50;4.43;;;5.10;84.00;;;;;;4982901;28;20048;-74
2022/01/05 08:56:29;;;;;;;19.27;4.10;;;5.00;84.00;;;;;;4983306;28;20217;-74
2022/01/05 08:58:55;;;;;;;21.42;4.32;;;5.10;84.00;;;;;;4983263;28;20133;-73
2022/01/05 09:01:22;;;;;;;20.17;5.25;;;5.10;83.90;;;;;;4974864;28;20058;-73
2022/01/05 09:03:47;;;;;;;19.77;3.70;;;5.10;84.00;;;;;;4974731;28;20383;-73
2022/01/05 09:06:13;;;;;;;16.15;3.67;;;5.10;83.80;;;;;;4976047;28;20119;-73
2022/01/05 09:08:38;;;;;;;19.33;4.57;;;5.20;83.60;;;;;;4976849;28;20030;-74
2022/01/05 09:11:07;;;;;;;17.02;3.83;;;5.20;83.40;;;;;;4978777;28;20142;-73
2022/01/05 09:13:32;;;;;;;14.85;3.42;;;5.20;83.30;;;;;;4975172;28;21316;-73
2022/01/05 09:15:58;;;;;;;17.58;4.07;;;5.20;83.20;;;;;;4975254;28;20104;-73
2022/01/05 09:18:24;;;;;;;19.00;4.75;;;5.20;83.40;;;;;;4974828;28;20437;-73
2022/01/05 09:20:49;;;;;;;18.17;4.43;;;5.30;83.60;;;;;;4978456;28;20400;-74
2022/01/05 09:23:15;;;;;;;15.00;3.90;;;5.30;83.40;;;;;;4976762;28;20663;-73
2022/01/05 09:25:41;;;;;;;25.02;5.28;;;5.30;83.60;;;;;;4974433;28;20038;-75
2022/01/05 09:28:08;;;;;;;17.55;4.28;;;5.30;83.50;;;;;;4981055;28;20034;-73
2022/01/05 09:30:34;;;;;;;22.08;5.22;;;5.40;83.60;;;;;;4975966;28;20474;-73
2022/01/05 09:33:00;;;;;;;18.00;4.45;;;5.40;83.50;;;;;;4975495;28;20042;-74
2022/01/05 09:35:26;;;;;;;17.73;4.18;;;5.40;83.70;;;;;;4955885;28;20504;-74
2022/01/05 09:38:09;;;;;;;18.38;3.28;;;5.40;83.20;;;;;;4969123;28;20328;-74
2022/01/05 09:43:21;;;;;;;18.75;4.00;;;5.50;83.30;;;;;;4978016;28;20053;-74
2022/01/05 09:45:54;;;;;;;24.77;6.18;;;5.50;83.30;;;;;;4978919;28;20038;-73
2022/01/05 09:48:29;;;;;;;16.45;5.50;;;5.50;83.30;;;;;;4977342;28;20120;-78
2022/01/05 09:50:58;;;;;;;20.10;4.43;;;5.60;83.00;;;;;;4978580;28;20055;-76
2022/01/05 09:53:24;;;;;;;17.25;3.08;;;5.60;82.80;;;;;;4978019;28;20053;-76
2022/01/05 09:55:51;;;;;;;18.02;4.05;;;5.70;82.80;;;;;;4985390;28;20042;-75
2022/01/05 09:58:22;;;;;;;22.30;4.10;;;5.80;82.30;;;;;;4992835;28;20180;-75
2022/01/05 10:00:52;;;;;;;18.67;4.93;;;5.90;82.00;;;;;;4984803;28;20434;-76
2022/01/05 10:03:18;;;;;;;18.80;4.88;;;5.90;82.20;;;;;;4963521;28;20488;-74
2022/01/05 10:05:44;;;;;;;18.45;4.45;;;5.90;82.10;;;;;;4982859;28;20047;-74
2022/01/05 10:08:11;;;;;;;25.00;6.18;;;5.90;82.30;;;;;;4960155;28;20070;-76
2022/01/05 10:10:37;;;;;;;18.58;4.15;;;5.90;82.00;;;;;;4979654;28;20077;-76
2022/01/05 10:13:03;;;;;;;19.30;4.57;;;5.90;82.00;;;;;;4980387;28;20034;-74
2022/01/05 10:15:29;;;;;;;17.92;4.35;;;5.90;82.30;;;;;;4978182;28;20113;-74
2022/01/05 10:18:11;;;;;;;18.00;5.07;;;5.90;82.30;;;;;;4980660;28;20398;-75
2022/01/05 10:20:53;;;;;;;18.90;4.53;;;5.90;81.80;;;;;;4982441;28;20410;-75
2022/01/05 10:23:35;;;;;;;21.48;4.97;;;5.90;81.90;;;;;;4981437;28;20794;-75
2022/01/05 10:26:26;;;;;;;19.38;4.35;;;6.00;82.10;;;;;;4981855;28;20076;-76
2022/01/05 10:29:05;;;;;;;16.33;4.55;;;6.00;81.80;;;;;;4980780;28;20050;-77
2022/01/05 10:31:33;;;;;;;18.77;4.88;;;6.10;81.60;;;;;;4979191;28;20041;-77
2022/01/05 10:34:22;;;;;;;20.23;4.18;;;6.00;81.70;;;;;;4978642;28;20046;-77
2022/01/05 10:36:56;;;;;;;17.33;4.00;;;6.10;82.00;;;;;;4978180;28;20038;-75
2022/01/05 10:39:35;;;;;;;18.83;4.78;;;6.10;81.90;;;;;;4978234;28;20034;-75
2022/01/05 10:42:19;;;;;;;19.27;4.90;;;6.10;81.30;;;;;;4977148;28;20125;-77
2022/01/05 10:44:51;;;;;;;18.05;4.25;;;6.10;81.70;;;;;;4979305;28;20155;-75
2022/01/05 10:47:16;;;;;;;17.05;4.53;;;6.10;81.80;;;;;;4959802;28;20030;-76
2022/01/05 10:49:42;;;;;;;18.30;4.90;;;6.20;81.60;;;;;;4982719;28;20081;-77
2022/01/05 10:52:30;;;;;;;19.30;4.72;;;6.30;81.00;;;;;;4978343;28;20085;-77
2022/01/05 10:55:14;;;;;;;16.77;4.20;;;6.30;80.70;;;;;;4980099;28;20038;-75
2022/01/05 10:58:02;;;;;;;17.58;4.70;;;6.30;81.20;;;;;;4976327;28;20042;-74
2022/01/05 11:00:40;;;;;;;18.52;4.07;;;6.40;80.80;;;;;;4964218;28;20041;-73
2022/01/05 11:03:31;;;;;;;16.65;4.43;;;6.30;80.20;;;;;;4978460;28;20524;-77
2022/01/05 11:06:17;;;;;;;13.68;3.75;;;6.40;80.60;;;;;;4979736;28;20042;-75
2022/01/05 11:08:52;;;;;;;19.38;4.60;;;6.40;80.70;;;;;;4979564;28;20437;-75
2022/01/05 11:11:37;;;;;;;16.33;4.03;;;6.40;80.60;;;;;;4980342;28;20482;-76
2022/01/05 11:14:08;;;;;;;17.13;4.57;;;6.50;80.50;;;;;;4976880;28;20050;-76
2022/01/05 11:16:37;;;;;;;14.80;3.72;;;6.50;80.10;;;;;;4978337;28;20044;-79
2022/01/05 11:19:23;;;;;;;21.80;4.15;;;6.50;80.20;;;;;;4978621;28;20045;-73
2022/01/05 11:22:00;;;;;;;21.50;4.88;;;6.60;79.90;;;;;;4978093;28;20042;-77
2022/01/05 11:24:28;;;;;;;16.17;4.03;;;6.50;79.70;;;;;;4977936;28;20083;-76
2022/01/05 11:26:53;;;;;;;17.13;4.45;;;6.50;79.70;;;;;;4976346;28;20053;-76
2022/01/05 11:29:20;;;;;;;15.85;4.68;;;6.60;79.60;;;;;;4979767;28;20039;-77
2022/01/05 11:31:46;;;;;;;14.70;3.75;;;6.60;79.70;;;;;;4975804;28;20066;-74
2022/01/05 11:34:12;;;;;;;14.80;3.38;;;6.70;79.80;;;;;;4949329;28;20400;-77
2022/01/05 11:36:39;;;;;;;15.13;3.60;;;6.60;78.50;;;;;;4970260;28;20038;-78
2022/01/05 11:39:05;;;;;;;17.15;3.92;;;6.50;77.40;;;;;;4964045;28;20070;-77
2022/01/05 11:41:32;;;;;;;16.48;3.58;;;6.40;77.30;;;;;;4972359;28;21526;-73
2022/01/05 11:44:00;;;;;;;16.27;3.00;;;6.40;77.40;;;;;;4971095;28;20049;-75
2022/01/05 11:46:29;;;;;;;15.52;3.88;;;6.30;78.50;;;;;;4971684;28;20049;-78
2022/01/05 11:49:07;;;;;;;17.35;4.47;;;6.40;78.20;;;;;;4974123;28;20485;-75
2022/01/05 11:51:42;;;;;;;26.73;3.83;;;6.40;78.70;;;;;;4975230;28;20053;-74
2022/01/05 11:54:21;;;;;;;19.70;3.97;;;6.50;78.50;;;;;;4975476;28;20473;-75
2022/01/05 11:56:57;;;;;;;16.15;4.65;;;6.60;78.20;;;;;;4972299;28;20050;-74
2022/01/05 11:59:36;;;;;;;16.17;3.20;;;6.70;78.60;;;;;;4977446;28;20057;-76
2022/01/05 12:02:39;;;;;;;19.02;3.78;;;6.70;77.10;;;;;;4975043;28;20039;-76
2022/01/05 12:05:05;;;;;;;16.13;3.38;;;6.80;76.30;;;;;;4976023;28;20034;-75
2022/01/05 12:07:47;;;;;;;18.83;3.95;;;6.90;75.80;;;;;;4974769;28;20045;-75
2022/01/05 12:10:21;;;;;;;16.63;3.55;;;6.80;75.50;;;;;;4971683;28;20038;-74
2022/01/05 12:13:03;;;;;;;17.55;3.45;;;6.90;75.90;;;;;;4967640;28;20386;-74
2022/01/05 12:15:38;;;;;;;14.18;3.20;;;7.00;76.30;;;;;;4973358;28;20039;-75
2022/01/05 12:18:04;;;;;;;;;;;7.10;76.00;;;;;;4974538;28;20145;-76
2022/01/05 12:20:39;;;;;;;15.88;3.88;;;7.30;75.20;;;;;;4978019;28;19924;-75
2022/01/05 12:23:18;;;;;;;14.27;4.30;;;7.20;76.00;;;;;;4973595;28;20109;-76
2022/01/05 12:26:10;;;;;;;19.85;3.88;;;7.10;76.00;;;;;;4973918;28;20046;-73
2022/01/05 12:28:38;;;;;;;16.25;3.80;;;7.10;75.90;;;;;;4978743;28;20169;-75
2022/01/05 12:31:09;;;;;;;18.73;3.90;;;7.20;76.20;;;;;;4978579;28;20031;-74
2022/01/05 12:33:46;;;;;;;16.98;3.80;;;7.30;76.50;;;;;;4977212;28;20148;-74
2022/01/05 12:36:15;;;;;;;15.70;4.05;;;7.30;75.80;;;;;;4980866;28;20038;-74
2022/01/05 12:38:54;;;;;;;19.20;3.45;;;7.40;76.00;;;;;;4991146;28;20038;-74
2022/01/05 12:41:34;;;;;;;16.50;3.35;;;7.40;75.60;;;;;;4995129;28;20062;-73
2022/01/05 12:44:10;;;;;;;17.90;3.92;;;7.30;75.10;;;;;;4964276;28;20787;-73
2022/01/05 12:46:42;;;;;;;17.48;3.53;;;7.50;75.50;;;;;;4984756;28;20153;-74
2022/01/05 12:49:12;;;;;;;15.13;4.40;;;7.60;74.80;;;;;;4981013;28;20033;-74
2022/01/05 12:51:44;;;;;;;16.98;3.70;;;7.40;74.30;;;;;;4965280;28;20073;-72
2022/01/05 12:54:26;;;;;;;14.18;3.40;;;7.20;74.20;;;;;;4979882;28;20054;-72
2022/01/05 12:56:56;;;;;;;16.95;4.15;;;7.20;74.50;;;;;;4980302;28;20050;-73